createdAt,value
2018-10-19T00:01:58.198Z,77613.53
2018-10-19T00:04:25.136Z,77611.53
2018-10-19T00:06:51.987Z,77616.54
2018-10-19T00:09:19.820Z,77618.54
2018-10-19T00:11:47.589Z,77614.53
2018-10-19T00:14:14.619Z,77624.55
2018-10-19T00:16:41.506Z,77619.54
2018-10-19T00:19:09.176Z,77615.53
2018-10-19T00:21:36.044Z,77607.53
2018-10-19T00:24:04.250Z,77603.52
2018-10-19T00:26:32.063Z,77602.52
2018-10-19T00:28:59.806Z,77602.52
2018-10-19T00:31:27.634Z,77603.52
2018-10-19T00:33:54.476Z,77600.52
2018-10-19T00:36:22.443Z,77604.52
2018-10-19T00:38:49.330Z,77608.53
2018-10-19T00:41:16.241Z,77611.53
2018-10-19T00:43:44.153Z,77618.54
2018-10-19T00:46:11.007Z,77614.53
2018-10-19T00:48:37.905Z,77612.53
2018-10-19T00:51:05.245Z,77617.54
2018-10-19T00:53:32.160Z,77611.53
2018-10-19T00:55:59.886Z,77607.53
2018-10-19T00:58:27.663Z,77611.53
2018-10-19T01:00:54.561Z,77618.54
2018-10-19T01:03:22.270Z,77612.53
2018-10-19T01:05:49.124Z,77611.53
2018-10-19T01:08:15.942Z,77607.53
2018-10-19T01:10:42.794Z,77610.53
2018-10-19T01:13:09.677Z,77611.53
2018-10-19T01:15:36.581Z,77609.53
2018-10-19T01:18:04.259Z,77611.53
2018-10-19T01:20:32.159Z,77620.55
2018-10-19T01:22:59.925Z,77616.54
2018-10-19T01:25:27.681Z,77619.54
2018-10-19T01:27:55.525Z,77621.55
2018-10-19T01:30:22.384Z,77618.54
2018-10-19T01:32:50.245Z,77616.54
2018-10-19T01:35:18.058Z,77610.53
2018-10-19T01:37:44.920Z,77607.53
2018-10-19T01:40:12.739Z,77612.53
2018-10-19T01:42:40.583Z,77606.53
2018-10-19T01:45:08.537Z,77612.53
2018-10-19T01:47:36.346Z,77612.53
2018-10-19T01:50:04.571Z,77613.53
2018-10-19T01:52:32.181Z,77616.54
2018-10-19T01:54:59.858Z,77618.54
2018-10-19T01:57:26.857Z,77621.55
2018-10-19T01:59:54.654Z,77616.54
2018-10-19T02:02:21.511Z,77617.54
2018-10-19T02:04:49.235Z,77617.54
2018-10-19T02:07:17.154Z,77617.54
2018-10-19T02:09:44.944Z,77615.53
2018-10-19T02:12:12.707Z,77617.54
2018-10-19T02:14:39.555Z,77619.54
2018-10-19T02:17:07.532Z,77623.55
2018-10-19T02:19:34.499Z,77616.54
2018-10-19T02:22:02.346Z,77621.55
2018-10-19T02:24:29.187Z,77619.54
2018-10-19T02:26:56.081Z,77623.55
2018-10-19T02:29:30.718Z,77627.55
2018-10-19T02:31:58.427Z,77623.55
2018-10-19T02:34:26.321Z,77623.55
2018-10-19T02:36:53.169Z,77623.55
2018-10-19T02:39:20.014Z,77624.55
2018-10-19T02:41:46.861Z,77624.55
2018-10-19T02:44:14.392Z,77626.55
2018-10-19T02:46:41.248Z,77625.55
2018-10-19T02:49:09.126Z,77625.55
2018-10-19T02:51:36.512Z,77621.55
2018-10-19T02:54:03.373Z,77623.55
2018-10-19T02:56:30.193Z,77622.55
2018-10-19T02:58:57.153Z,77622.55
2018-10-19T03:01:24.009Z,77621.55
2018-10-19T03:03:50.851Z,77625.55
2018-10-19T03:06:17.738Z,77625.55
2018-10-19T03:08:44.752Z,77624.55
2018-10-19T03:11:12.534Z,77628.55
2018-10-19T03:13:39.407Z,77625.55
2018-10-19T03:16:06.256Z,77624.55
2018-10-19T03:18:33.094Z,77625.55
2018-10-19T03:20:59.947Z,77628.55
2018-10-19T03:23:26.820Z,77629.55
2018-10-19T03:25:54.618Z,77632.55
2018-10-19T03:28:22.404Z,77632.55
2018-10-19T03:30:50.222Z,77635.55
2018-10-19T03:33:18.102Z,77637.56
2018-10-19T03:35:45.835Z,77631.55
2018-10-19T03:38:14.254Z,77636.56
2018-10-19T03:40:41.089Z,77639.56
2018-10-19T03:43:08.941Z,77635.55
2018-10-19T03:45:36.711Z,77636.56
2018-10-19T03:48:04.491Z,77641.56
2018-10-19T03:50:32.469Z,77637.56
2018-10-19T03:52:59.978Z,77637.56
2018-10-19T03:55:27.844Z,77635.55
2018-10-19T03:57:54.933Z,77635.55
2018-10-19T04:00:21.864Z,77631.55
2018-10-19T04:02:49.745Z,77633.55
2018-10-19T04:05:17.776Z,77633.55
2018-10-19T04:07:46.188Z,77637.56
2018-10-19T04:10:13.616Z,77637.56
2018-10-19T04:12:40.452Z,77638.56
2018-10-19T04:15:08.780Z,77639.56
2018-10-19T04:17:35.624Z,77641.56
2018-10-19T04:20:03.460Z,77644.56
2018-10-19T04:22:30.334Z,77645.56
2018-10-19T04:24:58.183Z,77650.57
2018-10-19T04:27:25.044Z,77651.58
2018-10-19T04:29:52.895Z,77648.57
2018-10-19T04:32:20.642Z,77649.57
2018-10-19T04:34:47.569Z,77649.57
2018-10-19T04:37:15.365Z,77647.56
2018-10-19T04:39:44.183Z,77647.56
2018-10-19T04:42:11.135Z,77653.58
2018-10-19T04:44:38.960Z,77656.58
2018-10-19T04:47:06.823Z,77663.59
2018-10-19T04:49:34.678Z,77654.58
2018-10-19T04:52:01.490Z,77656.58
2018-10-19T04:54:28.346Z,77657.58
2018-10-19T04:56:56.090Z,77651.58
2018-10-19T04:59:23.922Z,77655.58
2018-10-19T05:01:51.961Z,77655.58
2018-10-19T05:04:18.858Z,77658.58
2018-10-19T05:06:46.860Z,77653.58
2018-10-19T05:09:14.326Z,77659.58
2018-10-19T05:11:42.153Z,77656.58
2018-10-19T05:14:10.123Z,77660.58
2018-10-19T05:16:38.425Z,77666.59
2018-10-19T05:19:06.571Z,77679.60
2018-10-19T05:21:35.041Z,77675.59
2018-10-19T05:24:02.833Z,77668.59
2018-10-19T05:26:30.726Z,77663.59
2018-10-19T05:28:57.655Z,77662.58
2018-10-19T05:31:25.537Z,77660.58
2018-10-19T05:33:55.345Z,77664.59
2018-10-19T05:36:23.013Z,77656.58
2018-10-19T05:38:50.878Z,77661.58
2018-10-19T05:41:18.128Z,77666.59
2018-10-19T05:43:45.736Z,77669.59
2018-10-19T05:46:12.575Z,77663.59
2018-10-19T05:48:40.672Z,77669.59
2018-10-19T05:51:09.052Z,77661.58
2018-10-19T05:53:35.904Z,77672.59
2018-10-19T05:56:02.784Z,77677.60
2018-10-19T05:58:30.671Z,77678.60
2018-10-19T06:00:57.521Z,77684.61
2018-10-19T06:03:24.396Z,77679.60
2018-10-19T06:05:51.948Z,77689.61
2018-10-19T06:08:18.806Z,77687.61
2018-10-19T06:10:45.639Z,77692.62
2018-10-19T06:13:13.569Z,77698.63
2018-10-19T06:15:41.424Z,77695.63
2018-10-19T06:18:09.200Z,77707.63
2018-10-19T06:20:36.981Z,77705.63
2018-10-19T06:23:04.878Z,77707.63
2018-10-19T06:25:32.726Z,77708.63
2018-10-19T06:27:59.616Z,77708.63
2018-10-19T06:30:27.732Z,77707.63
2018-10-19T06:32:55.610Z,77711.64
2018-10-19T06:35:22.659Z,77713.64
2018-10-19T06:37:50.301Z,77744.67
2018-10-19T06:40:18.202Z,77744.67
2018-10-19T06:42:45.952Z,77731.66
2018-10-19T06:45:14.525Z,77730.66
2018-10-19T06:47:42.354Z,77731.66
2018-10-19T06:50:11.350Z,77731.66
2018-10-19T06:52:39.445Z,77728.66
2018-10-19T06:55:07.732Z,77723.65
2018-10-19T06:57:35.386Z,77728.66
2018-10-19T07:00:03.262Z,77725.66
2018-10-19T07:02:31.109Z,77729.66
2018-10-19T07:04:59.078Z,77732.66
2018-10-19T07:07:26.967Z,77733.66
2018-10-19T07:09:54.198Z,77738.66
2018-10-19T07:12:21.080Z,77735.66
2018-10-19T07:14:49.123Z,77740.67
2018-10-19T07:17:16.375Z,77749.67
2018-10-19T07:19:44.012Z,77747.67
2018-10-19T07:22:10.861Z,77750.67
2018-10-19T07:24:37.833Z,77748.67
2018-10-19T07:27:04.656Z,77748.67
2018-10-19T07:29:31.720Z,77750.67
2018-10-19T07:31:58.602Z,77758.69
2018-10-19T07:34:25.445Z,77760.69
2018-10-19T07:36:53.067Z,77757.69
2018-10-19T07:39:20.855Z,77757.69
2018-10-19T07:41:48.724Z,77757.69
2018-10-19T07:44:16.558Z,77761.69
2018-10-19T07:46:44.090Z,77763.69
2018-10-19T07:49:10.987Z,77759.69
2018-10-19T07:51:38.814Z,77760.69
2018-10-19T07:54:05.648Z,77760.69
2018-10-19T07:56:32.529Z,77759.69
2018-10-19T07:58:59.446Z,77758.69
2018-10-19T08:01:26.487Z,77759.69
2018-10-19T08:03:54.389Z,77759.69
2018-10-19T08:06:22.249Z,77759.69
2018-10-19T08:08:49.119Z,77763.69
2018-10-19T08:11:15.990Z,77769.70
2018-10-19T08:13:43.404Z,77771.70
2018-10-19T08:16:10.223Z,77767.70
2018-10-19T08:18:37.073Z,77768.70
2018-10-19T08:21:04.068Z,77765.69
2018-10-19T08:23:30.950Z,77772.70
2018-10-19T08:25:57.820Z,77783.72
2018-10-19T08:28:25.951Z,77778.70
2018-10-19T08:30:52.810Z,77777.70
2018-10-19T08:33:19.654Z,77776.70
2018-10-19T08:35:46.754Z,77773.70
2018-10-19T08:38:14.754Z,77777.70
2018-10-19T08:40:41.667Z,77776.70
2018-10-19T08:43:08.549Z,77773.70
2018-10-19T08:45:35.461Z,77778.70
2018-10-19T08:48:03.214Z,77782.71
2018-10-19T08:50:31.141Z,77780.71
2018-10-19T08:52:58.127Z,77781.71
2018-10-19T08:55:26.103Z,77784.72
2018-10-19T08:57:53.054Z,77785.72
2018-10-19T09:00:20.888Z,77782.71
2018-10-19T09:02:47.798Z,77781.71
2018-10-19T09:05:16.679Z,77777.70
2018-10-19T09:07:44.178Z,77778.70
2018-10-19T09:10:11.107Z,77777.70
2018-10-19T09:12:38.309Z,77781.71
2018-10-19T09:15:05.772Z,77781.71
2018-10-19T09:17:32.632Z,77781.71
2018-10-19T09:20:00.410Z,77782.71
2018-10-19T09:22:27.285Z,77779.71
2018-10-19T09:24:54.187Z,77782.71
2018-10-19T09:27:21.859Z,77787.72
2018-10-19T09:29:49.554Z,77800.73
2018-10-19T09:32:16.966Z,77795.73
2018-10-19T09:34:44.427Z,77795.73
2018-10-19T09:37:12.429Z,77793.72
2018-10-19T09:39:40.117Z,77789.72
2018-10-19T09:42:07.650Z,77790.72
2018-10-19T09:44:34.605Z,77783.72
2018-10-19T09:47:02.392Z,77785.72
2018-10-19T09:49:29.271Z,77788.72
2018-10-19T09:51:57.116Z,77787.72
2018-10-19T09:54:25.065Z,77784.72
2018-10-19T09:56:51.949Z,77779.71
2018-10-19T09:59:18.852Z,77778.70
2018-10-19T10:01:45.781Z,77781.71
2018-10-19T10:04:12.655Z,77779.71
2018-10-19T10:06:39.500Z,77778.70
2018-10-19T10:09:11.645Z,77778.70
2018-10-19T10:11:38.611Z,77774.70
2018-10-19T10:14:05.526Z,77775.70
2018-10-19T10:16:32.394Z,77767.70
2018-10-19T10:18:59.300Z,77776.70
2018-10-19T10:21:26.145Z,77773.70
2018-10-19T10:23:52.991Z,77764.69
2018-10-19T10:26:19.821Z,77770.70
2018-10-19T10:28:46.678Z,77768.70
2018-10-19T10:31:14.684Z,77770.70
2018-10-19T10:33:41.463Z,77774.70
2018-10-19T10:36:08.325Z,77763.69
2018-10-19T10:38:35.208Z,77765.69
2018-10-19T10:41:02.270Z,77761.69
2018-10-19T10:43:29.132Z,77763.69
2018-10-19T10:45:56.020Z,77761.69
2018-10-19T10:48:22.922Z,77757.69
2018-10-19T10:50:49.792Z,77755.68
2018-10-19T10:53:16.868Z,77751.67
2018-10-19T10:55:44.314Z,77755.68
2018-10-19T10:58:12.080Z,77739.66
2018-10-19T11:00:38.868Z,77735.66
2018-10-19T11:03:06.662Z,77726.66
2018-10-19T11:05:33.538Z,77739.66
2018-10-19T11:08:01.382Z,77740.67
2018-10-19T11:10:29.157Z,77749.67
2018-10-19T11:12:56.046Z,77739.66
2018-10-19T11:15:22.900Z,77731.66
2018-10-19T11:17:49.791Z,77731.66
2018-10-19T11:20:16.724Z,77726.66
2018-10-19T11:22:45.038Z,77737.66
2018-10-19T11:25:11.933Z,77736.66
2018-10-19T11:27:38.762Z,77727.66
2018-10-19T11:30:06.042Z,77735.66
2018-10-19T11:32:32.982Z,77731.66
2018-10-19T11:34:59.850Z,77726.66
2018-10-19T11:37:26.681Z,77724.65
2018-10-19T11:39:59.424Z,77723.65
2018-10-19T11:42:26.361Z,77718.64
2018-10-19T11:44:53.223Z,77715.64
2018-10-19T11:47:20.912Z,77718.64
2018-10-19T11:49:47.767Z,77721.64
2018-10-19T11:52:15.489Z,77716.64
2018-10-19T11:54:42.409Z,77720.64
2018-10-19T11:57:09.349Z,77715.64
2018-10-19T11:59:36.238Z,77714.64
2018-10-19T12:02:03.110Z,77720.64
2018-10-19T12:04:30.892Z,77721.64
2018-10-19T12:06:58.885Z,77716.64
2018-10-19T12:09:25.703Z,77715.64
2018-10-19T12:11:53.361Z,77714.64
2018-10-19T12:14:20.275Z,77719.64
2018-10-19T12:16:47.118Z,77711.64
2018-10-19T12:19:15.569Z,77709.63
2018-10-19T12:21:42.397Z,77714.64
2018-10-19T12:24:09.310Z,77710.64
2018-10-19T12:26:37.106Z,77715.64
2018-10-19T12:29:04.889Z,77710.64
2018-10-19T12:31:31.737Z,77709.63
2018-10-19T12:33:59.561Z,77702.63
2018-10-19T12:36:26.422Z,77715.64
2018-10-19T12:38:53.263Z,77710.64
2018-10-19T12:41:20.246Z,77701.63
2018-10-19T12:43:47.117Z,77702.63
2018-10-19T12:46:20.325Z,77699.63
2018-10-19T12:48:47.180Z,77700.63
2018-10-19T12:51:15.089Z,77703.63
2018-10-19T12:53:41.932Z,77706.63
2018-10-19T12:56:09.734Z,77701.63
2018-10-19T12:58:36.602Z,77699.63
2018-10-19T13:01:03.498Z,77704.63
2018-10-19T13:03:30.439Z,77707.63
2018-10-19T13:05:57.328Z,77694.62
2018-10-19T13:08:25.085Z,77692.62
2018-10-19T13:10:52.110Z,77688.61
2018-10-19T13:13:19.892Z,77685.61
2018-10-19T13:15:46.738Z,77691.62
2018-10-19T13:18:14.647Z,77691.62
2018-10-19T13:20:41.466Z,77697.63
2018-10-19T13:23:08.385Z,77687.61
2018-10-19T13:25:35.378Z,77681.61
2018-10-19T13:28:02.251Z,77679.60
2018-10-19T13:30:29.108Z,77681.61
2018-10-19T13:32:56.765Z,77678.60
2018-10-19T13:35:23.623Z,77686.61
2018-10-19T13:37:50.757Z,77682.61
2018-10-19T13:40:17.601Z,77679.60
2018-10-19T13:42:45.495Z,77667.59
2018-10-19T13:45:12.635Z,77669.59
2018-10-19T13:47:39.474Z,77665.59
2018-10-19T13:50:06.533Z,77665.59
2018-10-19T13:52:34.454Z,77662.58
2018-10-19T13:55:01.347Z,77663.59
2018-10-19T13:57:28.400Z,77661.58
2018-10-19T13:59:55.772Z,77671.59
2018-10-19T14:02:23.088Z,77672.59
2018-10-19T14:04:50.694Z,77670.59
2018-10-19T14:07:18.467Z,77667.59
2018-10-19T14:09:46.274Z,77663.59
2018-10-19T14:12:13.952Z,77657.58
2018-10-19T14:14:46.068Z,77655.58
2018-10-19T14:17:13.684Z,77653.58
2018-10-19T14:19:41.993Z,77653.58
2018-10-19T14:22:08.849Z,77653.58
2018-10-19T14:24:36.273Z,77657.58
2018-10-19T14:27:03.802Z,77665.59
2018-10-19T14:29:31.598Z,77661.58
2018-10-19T14:31:58.444Z,77657.58
2018-10-19T14:34:26.344Z,77671.59
2018-10-19T14:36:54.337Z,77681.61
2018-10-19T14:39:21.197Z,77679.60
2018-10-19T14:41:48.033Z,77696.63
2018-10-19T14:44:14.915Z,77723.65
2018-10-19T14:46:41.766Z,77718.64
2018-10-19T14:49:08.594Z,77722.65
2018-10-19T14:51:35.388Z,77727.66
2018-10-19T14:54:02.202Z,77723.65
2018-10-19T14:56:30.004Z,77755.68
2018-10-19T14:58:56.818Z,77742.67
2018-10-19T15:01:23.694Z,77747.67
2018-10-19T15:03:50.547Z,77749.67
2018-10-19T15:06:17.381Z,77749.67
2018-10-19T15:08:45.138Z,77733.66
2018-10-19T15:11:12.086Z,77727.66
2018-10-19T15:13:39.805Z,77750.67
2018-10-19T15:16:06.660Z,77770.70
2018-10-19T15:18:33.502Z,77782.71
2018-10-19T15:21:01.352Z,77780.71
2018-10-19T15:23:28.129Z,77774.70
2018-10-19T15:25:55.882Z,77765.69
2018-10-19T15:28:23.676Z,77802.73
2018-10-19T15:30:51.461Z,77805.73
2018-10-19T15:33:19.302Z,77812.74
2018-10-19T15:35:46.932Z,77813.75
2018-10-19T15:38:15.697Z,77812.74
2018-10-19T15:40:44.566Z,77801.73
2018-10-19T15:43:12.268Z,77798.73
2018-10-19T15:45:40.146Z,77803.73
2018-10-19T15:48:07.981Z,77795.73
2018-10-19T15:50:34.905Z,77827.77
2018-10-19T15:53:02.583Z,77823.75
2018-10-19T15:55:30.271Z,77812.74
2018-10-19T15:57:58.105Z,77819.75
2018-10-19T16:00:26.007Z,77828.77
2018-10-19T16:02:53.818Z,77831.77
2018-10-19T16:05:21.679Z,77821.75
2018-10-19T16:07:48.532Z,77851.78
2018-10-19T16:10:16.240Z,77843.78
2018-10-19T16:12:45.079Z,77841.77
2018-10-19T16:15:13.930Z,77832.77
2018-10-19T16:17:41.840Z,77841.77
2018-10-19T16:20:10.187Z,77845.78
2018-10-19T16:22:38.421Z,77840.77
2018-10-19T16:25:05.630Z,77876.81
2018-10-19T16:27:33.377Z,77877.81
2018-10-19T16:30:01.077Z,77885.83
2018-10-19T16:32:28.900Z,77881.82
2018-10-19T16:34:56.622Z,77863.80
2018-10-19T16:37:24.309Z,77887.83
2018-10-19T16:39:52.413Z,77869.80
2018-10-19T16:42:20.295Z,77873.81
2018-10-19T16:44:48.152Z,77875.81
2018-10-19T16:47:15.919Z,77872.81
2018-10-19T16:49:44.490Z,77900.84
2018-10-19T16:52:12.353Z,77903.84
2018-10-19T16:54:40.141Z,77889.83
2018-10-19T16:57:08.005Z,77900.84
2018-10-19T16:59:34.839Z,77913.86
2018-10-19T17:02:02.665Z,77913.86
2018-10-19T17:04:30.507Z,77918.86
2018-10-19T17:06:58.195Z,77913.86
2018-10-19T17:09:25.033Z,77900.84
2018-10-19T17:11:52.069Z,77905.84
2018-10-19T17:14:18.950Z,77891.83
2018-10-19T17:16:45.960Z,77855.79
2018-10-19T17:19:14.396Z,77834.77
2018-10-19T17:21:42.222Z,77818.75
2018-10-19T17:24:09.956Z,77807.73
2018-10-19T17:26:37.798Z,77804.73
2018-10-19T17:29:04.716Z,77805.73
2018-10-19T17:31:31.646Z,77807.73
2018-10-19T17:33:58.416Z,77807.73
2018-10-19T17:36:25.243Z,77803.73
2018-10-19T17:38:53.005Z,77800.73
2018-10-19T17:41:19.852Z,77793.72
2018-10-19T17:43:47.613Z,77789.72
2018-10-19T17:46:15.544Z,77787.72
2018-10-19T17:48:42.413Z,77794.73
2018-10-19T17:51:09.308Z,77788.72
2018-10-19T17:53:36.834Z,77794.73
2018-10-19T17:56:08.484Z,77797.73
2018-10-19T17:58:35.392Z,77795.73
2018-10-19T18:01:02.242Z,77795.73
2018-10-19T18:03:29.106Z,77798.73
2018-10-19T18:05:55.976Z,77798.73
2018-10-19T18:08:22.871Z,77804.73
2018-10-19T18:10:50.495Z,77808.73
2018-10-19T18:13:17.346Z,77808.73
2018-10-19T18:15:44.672Z,77803.73
2018-10-19T18:18:11.662Z,77808.73
2018-10-19T18:20:38.705Z,77803.73
2018-10-19T18:23:05.744Z,77808.73
2018-10-19T18:25:32.576Z,77803.73
2018-10-19T18:27:59.468Z,77799.73
2018-10-19T18:30:26.315Z,77803.73
2018-10-19T18:32:53.202Z,77806.73
2018-10-19T18:35:20.073Z,77813.75
2018-10-19T18:37:46.960Z,77813.75
2018-10-19T18:40:14.605Z,77818.75
2018-10-19T18:42:41.443Z,77821.75
2018-10-19T18:45:09.280Z,77818.75
2018-10-19T18:47:36.738Z,77821.75
2018-10-19T18:50:04.906Z,77823.75
2018-10-19T18:52:32.620Z,77821.75
2018-10-19T18:55:00.504Z,77819.75
2018-10-19T18:57:27.472Z,77817.75
2018-10-19T18:59:54.294Z,77819.75
2018-10-19T19:02:21.191Z,77824.76
2018-10-19T19:04:48.841Z,77820.75
2018-10-19T19:07:16.201Z,77830.77
2018-10-19T19:09:47.620Z,77829.77
2018-10-19T19:12:15.510Z,77830.77
2018-10-19T19:14:42.412Z,77819.75
2018-10-19T19:17:09.463Z,77828.77
2018-10-19T19:19:36.416Z,77824.76
2018-10-19T19:22:03.257Z,77830.77
2018-10-19T19:24:36.704Z,77831.77
2018-10-19T19:27:03.589Z,77831.77
2018-10-19T19:29:31.489Z,77831.77
2018-10-19T19:31:59.288Z,77837.77
2018-10-19T19:34:30.961Z,77836.77
2018-10-19T19:36:58.751Z,77843.78
2018-10-19T19:39:26.493Z,77840.77
2018-10-19T19:41:59.062Z,77841.77
2018-10-19T19:44:25.928Z,77838.77
2018-10-19T19:46:52.888Z,77839.77
2018-10-19T19:49:25.454Z,77838.77
2018-10-19T19:51:52.341Z,77843.78
2018-10-19T19:54:21.849Z,77841.77
2018-10-19T19:56:48.703Z,77843.78
2018-10-19T19:59:16.520Z,77844.78
2018-10-19T20:01:44.544Z,77848.78
2018-10-19T20:04:11.564Z,77849.78
2018-10-19T20:06:38.663Z,77852.78
2018-10-19T20:09:05.963Z,77851.78
2018-10-19T20:11:32.902Z,77857.80
2018-10-19T20:14:00.905Z,77857.80
2018-10-19T20:16:27.871Z,77858.80
2018-10-19T20:18:54.801Z,77851.78
2018-10-19T20:21:21.735Z,77854.79
2018-10-19T20:23:48.766Z,77853.79
2018-10-19T20:26:15.757Z,77849.78
2018-10-19T20:28:44.299Z,77846.78
2018-10-19T20:31:11.274Z,77845.78
2018-10-19T20:33:38.257Z,77849.78
2018-10-19T20:37:29.933Z,77847.78
2018-10-19T20:39:56.853Z,77849.78
2018-10-19T20:42:23.793Z,77849.78
2018-10-19T20:44:50.665Z,77851.78
2018-10-19T20:47:17.573Z,77850.78
2018-10-19T20:49:45.335Z,77855.79
2018-10-19T20:52:12.220Z,77858.80
2018-10-19T20:54:39.133Z,77854.79
2018-10-19T20:57:05.998Z,77851.78
2018-10-19T20:59:32.859Z,77855.79
2018-10-19T21:02:00.671Z,77852.78
2018-10-19T21:04:28.624Z,77843.78
2018-10-19T21:06:56.536Z,77846.78
2018-10-19T21:09:23.387Z,77847.78
2018-10-19T21:11:50.227Z,77847.78
2018-10-19T21:14:17.070Z,77845.78
2018-10-19T21:16:44.540Z,77846.78
2018-10-19T21:19:11.436Z,77846.78
2018-10-19T21:21:38.258Z,77847.78
2018-10-19T21:24:05.150Z,77845.78
2018-10-19T21:26:32.043Z,77848.78
2018-10-19T21:28:58.956Z,77847.78
2018-10-19T21:31:25.875Z,77839.77
2018-10-19T21:33:52.737Z,77842.78
2018-10-19T21:36:19.614Z,77844.78
2018-10-19T21:38:47.339Z,77843.78
2018-10-19T21:41:14.855Z,77845.78
2018-10-19T21:43:41.629Z,77839.77
2018-10-19T21:46:09.358Z,77846.78
2018-10-19T21:48:36.219Z,77847.78
2018-10-19T21:51:03.900Z,77845.78
2018-10-19T21:53:30.758Z,77847.78
2018-10-19T21:55:57.666Z,77848.78
2018-10-19T21:58:24.509Z,77849.78
2018-10-19T22:00:52.311Z,77852.78
2018-10-19T22:03:20.155Z,77847.78
2018-10-19T22:05:47.977Z,77842.78
2018-10-19T22:08:15.887Z,77843.78
2018-10-19T22:10:42.743Z,77835.77
2018-10-19T22:13:10.485Z,77840.77
2018-10-19T22:15:38.272Z,77840.77
2018-10-19T22:18:06.106Z,77837.77
2018-10-19T22:20:33.917Z,77838.77
2018-10-19T22:23:00.777Z,77841.77
2018-10-19T22:25:28.659Z,77838.77
2018-10-19T22:27:55.471Z,77838.77
2018-10-19T22:30:23.231Z,77835.77
2018-10-19T22:32:51.027Z,77839.77
2018-10-19T22:35:17.868Z,77839.77
2018-10-19T22:37:45.526Z,77840.77
2018-10-19T22:40:12.559Z,77838.77
2018-10-19T22:42:39.378Z,77835.77
2018-10-19T22:45:07.127Z,77842.78
2018-10-19T22:47:33.979Z,77845.78
2018-10-19T22:50:00.790Z,77845.78
2018-10-19T22:52:27.638Z,77843.78
2018-10-19T22:54:54.461Z,77845.78
2018-10-19T22:57:21.274Z,77846.78
2018-10-19T22:59:48.095Z,77848.78
2018-10-19T23:02:14.922Z,77847.78
2018-10-19T23:04:42.649Z,77845.78
2018-10-19T23:07:09.580Z,77849.78
2018-10-19T23:09:36.461Z,77853.79
2018-10-19T23:12:03.264Z,77859.80
2018-10-19T23:14:30.099Z,77858.80
2018-10-19T23:16:57.870Z,77849.78
2018-10-19T23:19:25.777Z,77851.78
2018-10-19T23:21:52.627Z,77850.78
2018-10-19T23:24:19.439Z,77850.78
2018-10-19T23:26:46.360Z,77855.79
2018-10-19T23:29:15.151Z,77853.79
2018-10-19T23:31:42.128Z,77858.80
2018-10-19T23:34:09.823Z,77861.80
2018-10-19T23:36:36.837Z,77861.80
2018-10-19T23:39:06.327Z,77862.80
2018-10-19T23:41:34.040Z,77865.80
2018-10-19T23:44:01.727Z,77874.81
2018-10-19T23:46:29.499Z,77873.81
2018-10-19T23:48:56.359Z,77870.81
2018-10-19T23:51:23.245Z,77862.80
2018-10-19T23:53:51.091Z,77864.80
2018-10-19T23:56:17.962Z,77861.80
2018-10-19T23:58:45.811Z,77860.80
